The Florida Keys Marathon Airport Marathon US
ICAO: KMTH
IATA: MTH
Category: Medium
Scheduled Services: No

Elevation: 5 ft
TransAlt. 18000 ft.

Airport Communications:
ASOS:135.525
MIAMI CNTR:133.5
MIAMI RDO:122.6
CTAF/UNICOM:122.8

KMTH Zoom In..

If Map Doesn't Load, Click Here

Runways:

(A) RW 07 length 5008 ft width 100 ft
---- / hdg 71

(B) RW 25 length 5008 ft width 100 ft
---- / hdg 251

Location; KMTH
Day. 24 / Time. 04.53 Zulu
* Altimeter: 29.97
* Temperature: 28° c. 82.4°f.
* Wind from: 080° Speed 04 kn.
Dewpoint: 22° c.
Visibility: 10 Statute Miles.
Clouds: Clear (automated report).

KMTH 240453Z AUTO 08004KT 10SM CLR 28/22 A2997 RMK AO2 SLP148 T02830222 403330278


Wind From 080°
Speed 04 kn.

 
 
jpsmedia.com for Web Design worldairports.se 2018   terms of use